sensor_id;sensor_type;location;lat;lon;timestamp;temperature;humidity
20714;DHT22;10518;50.742;4.226;2023-07-02T00:00:09;18.30;99.90
20714;DHT22;10518;50.742;4.226;2023-07-02T00:02:38;18.20;99.90
20714;DHT22;10518;50.742;4.226;2023-07-02T00:05:05;18.10;99.90
20714;DHT22;10518;50.742;4.226;2023-07-02T00:07:30;18.10;99.90
20714;DHT22;10518;50.742;4.226;2023-07-02T00:09:56;18.00;99.90
20714;DHT22;10518;50.742;4.226;2023-07-02T00:12:22;18.00;99.90
20714;DHT22;10518;50.742;4.226;2023-07-02T00:14:47;18.00;99.90
20714;DHT22;10518;50.742;4.226;2023-07-02T00:17:13;18.10;99.90
20714;DHT22;10518;50.742;4.226;2023-07-02T00:19:39;18.20;99.90
20714;DHT22;10518;50.742;4.226;2023-07-02T00:22:10;18.10;99.90
20714;DHT22;10518;50.742;4.226;2023-07-02T00:24:37;17.90;99.90
20714;DHT22;10518;50.742;4.226;2023-07-02T00:27:03;17.70;99.90
20714;DHT22;10518;50.742;4.226;2023-07-02T00:29:28;17.70;99.90
20714;DHT22;10518;50.742;4.226;2023-07-02T00:31:54;17.80;99.90
20714;DHT22;10518;50.742;4.226;2023-07-02T00:34:20;17.80;99.90
20714;DHT22;10518;50.742;4.226;2023-07-02T00:36:46;17.80;99.90
20714;DHT22;10518;50.742;4.226;2023-07-02T00:39:12;17.70;99.90
20714;DHT22;10518;50.742;4.226;2023-07-02T00:41:38;17.70;99.90
20714;DHT22;10518;50.742;4.226;2023-07-02T00:44:04;17.70;99.90
20714;DHT22;10518;50.742;4.226;2023-07-02T00:46:30;18.00;99.90
20714;DHT22;10518;50.742;4.226;2023-07-02T00:48:56;17.90;99.90
20714;DHT22;10518;50.742;4.226;2023-07-02T00:51:27;17.90;99.90
20714;DHT22;10518;50.742;4.226;2023-07-02T00:53:54;17.80;99.90
20714;DHT22;10518;50.742;4.226;2023-07-02T00:56:21;17.90;99.90
20714;DHT22;10518;50.742;4.226;2023-07-02T00:58:48;17.70;99.90
20714;DHT22;10518;50.742;4.226;2023-07-02T01:01:21;17.70;99.90
20714;DHT22;10518;50.742;4.226;2023-07-02T01:03:58;17.60;99.90
20714;DHT22;10518;50.742;4.226;2023-07-02T01:06:32;17.70;99.90
20714;DHT22;10518;50.742;4.226;2023-07-02T01:08:59;17.70;99.90
20714;DHT22;10518;50.742;4.226;2023-07-02T01:11:34;17.70;99.90
20714;DHT22;10518;50.742;4.226;2023-07-02T01:14:09;17.70;99.90
20714;DHT22;10518;50.742;4.226;2023-07-02T01:16:36;17.60;99.90
20714;DHT22;10518;50.742;4.226;2023-07-02T01:19:04;17.60;99.90
20714;DHT22;10518;50.742;4.226;2023-07-02T01:21:34;17.70;99.90
20714;DHT22;10518;50.742;4.226;2023-07-02T01:24:01;17.90;99.90
20714;DHT22;10518;50.742;4.226;2023-07-02T01:26:30;17.90;99.90
20714;DHT22;10518;50.742;4.226;2023-07-02T01:29:21;17.90;99.90
20714;DHT22;10518;50.742;4.226;2023-07-02T01:31:47;17.80;99.90
20714;DHT22;10518;50.742;4.226;2023-07-02T01:34:13;17.90;99.90
20714;DHT22;10518;50.742;4.226;2023-07-02T01:36:39;17.80;99.90
20714;DHT22;10518;50.742;4.226;2023-07-02T01:39:05;17.80;99.90
20714;DHT22;10518;50.742;4.226;2023-07-02T01:41:53;17.80;99.90
20714;DHT22;10518;50.742;4.226;2023-07-02T01:44:20;17.80;99.90
20714;DHT22;10518;50.742;4.226;2023-07-02T01:46:46;17.70;99.90
20714;DHT22;10518;50.742;4.226;2023-07-02T01:49:18;17.50;99.90
20714;DHT22;10518;50.742;4.226;2023-07-02T01:51:53;17.60;99.90
20714;DHT22;10518;50.742;4.226;2023-07-02T01:54:20;17.50;99.90
20714;DHT22;10518;50.742;4.226;2023-07-02T01:56:46;17.60;99.90
20714;DHT22;10518;50.742;4.226;2023-07-02T01:59:12;17.50;99.90
20714;DHT22;10518;50.742;4.226;2023-07-02T02:01:38;17.60;99.90
20714;DHT22;10518;50.742;4.226;2023-07-02T02:04:07;17.60;99.90
20714;DHT22;10518;50.742;4.226;2023-07-02T02:06:33;17.80;99.90
20714;DHT22;10518;50.742;4.226;2023-07-02T02:09:00;17.90;99.90
20714;DHT22;10518;50.742;4.226;2023-07-02T02:11:25;17.80;99.90
20714;DHT22;10518;50.742;4.226;2023-07-02T02:13:51;17.90;99.90
20714;DHT22;10518;50.742;4.226;2023-07-02T02:16:17;17.80;99.90
20714;DHT22;10518;50.742;4.226;2023-07-02T02:18:43;18.00;99.90
20714;DHT22;10518;50.742;4.226;2023-07-02T02:21:08;18.10;99.90
20714;DHT22;10518;50.742;4.226;2023-07-02T02:23:34;18.00;99.90
20714;DHT22;10518;50.742;4.226;2023-07-02T02:26:00;17.70;99.90
20714;DHT22;10518;50.742;4.226;2023-07-02T02:28:25;17.60;99.90
20714;DHT22;10518;50.742;4.226;2023-07-02T02:30:51;17.50;99.90
20714;DHT22;10518;50.742;4.226;2023-07-02T02:33:17;17.60;99.90
20714;DHT22;10518;50.742;4.226;2023-07-02T02:35:42;17.70;99.90
20714;DHT22;10518;50.742;4.226;2023-07-02T02:38:08;17.60;99.90
20714;DHT22;10518;50.742;4.226;2023-07-02T02:40:34;17.70;99.90
20714;DHT22;10518;50.742;4.226;2023-07-02T02:43:00;17.40;99.90
20714;DHT22;10518;50.742;4.226;2023-07-02T02:45:25;17.60;99.90
20714;DHT22;10518;50.742;4.226;2023-07-02T02:47:51;17.70;99.90
20714;DHT22;10518;50.742;4.226;2023-07-02T02:50:17;17.50;99.90
20714;DHT22;10518;50.742;4.226;2023-07-02T02:52:42;17.40;99.90
20714;DHT22;10518;50.742;4.226;2023-07-02T02:55:09;17.30;99.90
20714;DHT22;10518;50.742;4.226;2023-07-02T02:57:36;17.20;99.90
20714;DHT22;10518;50.742;4.226;2023-07-02T03:00:02;17.20;99.90
20714;DHT22;10518;50.742;4.226;2023-07-02T03:02:28;17.20;99.90
20714;DHT22;10518;50.742;4.226;2023-07-02T03:04:54;17.20;99.90
20714;DHT22;10518;50.742;4.226;2023-07-02T03:07:19;17.10;99.90
20714;DHT22;10518;50.742;4.226;2023-07-02T03:09:45;17.00;99.90
20714;DHT22;10518;50.742;4.226;2023-07-02T03:12:11;17.10;99.90
20714;DHT22;10518;50.742;4.226;2023-07-02T03:14:36;17.10;99.90
20714;DHT22;10518;50.742;4.226;2023-07-02T03:17:02;17.00;99.90
20714;DHT22;10518;50.742;4.226;2023-07-02T03:19:28;16.80;99.90
20714;DHT22;10518;50.742;4.226;2023-07-02T03:21:54;16.70;99.90
20714;DHT22;10518;50.742;4.226;2023-07-02T03:24:19;16.70;99.90
20714;DHT22;10518;50.742;4.226;2023-07-02T03:26:45;16.70;99.90
20714;DHT22;10518;50.742;4.226;2023-07-02T03:29:11;16.70;99.90
20714;DHT22;10518;50.742;4.226;2023-07-02T03:31:37;16.70;99.90
20714;DHT22;10518;50.742;4.226;2023-07-02T03:34:12;16.80;99.90
20714;DHT22;10518;50.742;4.226;2023-07-02T03:36:37;16.80;99.90
20714;DHT22;10518;50.742;4.226;2023-07-02T03:39:04;16.80;99.90
20714;DHT22;10518;50.742;4.226;2023-07-02T03:41:29;16.90;99.90
20714;DHT22;10518;50.742;4.226;2023-07-02T03:43:55;16.90;99.90
20714;DHT22;10518;50.742;4.226;2023-07-02T03:46:20;16.90;99.90
20714;DHT22;10518;50.742;4.226;2023-07-02T03:48:46;16.80;99.90
20714;DHT22;10518;50.742;4.226;2023-07-02T03:51:12;16.80;99.90
20714;DHT22;10518;50.742;4.226;2023-07-02T03:53:41;16.80;99.90
20714;DHT22;10518;50.742;4.226;2023-07-02T03:56:06;16.80;99.90
20714;DHT22;10518;50.742;4.226;2023-07-02T03:58:32;16.90;99.90
20714;DHT22;10518;50.742;4.226;2023-07-02T04:00:58;16.90;99.90
20714;DHT22;10518;50.742;4.226;2023-07-02T04:03:24;16.70;99.90
20714;DHT22;10518;50.742;4.226;2023-07-02T04:05:50;16.70;99.90
20714;DHT22;10518;50.742;4.226;2023-07-02T04:08:15;16.70;99.90
20714;DHT22;10518;50.742;4.226;2023-07-02T04:10:41;16.80;99.90
20714;DHT22;10518;50.742;4.226;2023-07-02T04:13:07;16.80;99.90
20714;DHT22;10518;50.742;4.226;2023-07-02T04:15:33;16.80;99.90
20714;DHT22;10518;50.742;4.226;2023-07-02T04:17:58;16.80;99.90
20714;DHT22;10518;50.742;4.226;2023-07-02T04:20:24;16.70;99.90
20714;DHT22;10518;50.742;4.226;2023-07-02T04:22:51;16.80;99.90
20714;DHT22;10518;50.742;4.226;2023-07-02T04:25:16;16.70;99.90
20714;DHT22;10518;50.742;4.226;2023-07-02T04:27:43;16.70;99.90
20714;DHT22;10518;50.742;4.226;2023-07-02T04:30:12;16.90;99.90
20714;DHT22;10518;50.742;4.226;2023-07-02T04:32:38;16.90;99.90
20714;DHT22;10518;50.742;4.226;2023-07-02T04:35:07;17.00;99.90
20714;DHT22;10518;50.742;4.226;2023-07-02T04:37:33;17.10;99.90
20714;DHT22;10518;50.742;4.226;2023-07-02T04:39:59;17.10;99.90
20714;DHT22;10518;50.742;4.226;2023-07-02T04:42:26;17.40;99.90
20714;DHT22;10518;50.742;4.226;2023-07-02T04:44:53;17.40;99.90
20714;DHT22;10518;50.742;4.226;2023-07-02T04:47:19;17.50;99.90
20714;DHT22;10518;50.742;4.226;2023-07-02T04:49:45;17.50;99.90
20714;DHT22;10518;50.742;4.226;2023-07-02T04:52:11;17.60;99.90
20714;DHT22;10518;50.742;4.226;2023-07-02T04:54:36;17.40;99.90
20714;DHT22;10518;50.742;4.226;2023-07-02T04:57:02;17.40;99.90
20714;DHT22;10518;50.742;4.226;2023-07-02T04:59:28;17.50;99.90
20714;DHT22;10518;50.742;4.226;2023-07-02T05:01:53;17.50;99.90
20714;DHT22;10518;50.742;4.226;2023-07-02T05:04:19;17.60;99.90
20714;DHT22;10518;50.742;4.226;2023-07-02T05:06:44;17.50;99.90
20714;DHT22;10518;50.742;4.226;2023-07-02T05:09:10;17.60;99.90
20714;DHT22;10518;50.742;4.226;2023-07-02T05:11:36;17.50;99.90
20714;DHT22;10518;50.742;4.226;2023-07-02T05:14:01;17.80;99.90
20714;DHT22;10518;50.742;4.226;2023-07-02T05:16:28;18.10;99.90
20714;DHT22;10518;50.742;4.226;2023-07-02T05:18:53;18.30;99.90
20714;DHT22;10518;50.742;4.226;2023-07-02T05:21:19;18.50;99.90
20714;DHT22;10518;50.742;4.226;2023-07-02T05:23:45;18.60;99.90
20714;DHT22;10518;50.742;4.226;2023-07-02T05:26:11;18.70;99.90
20714;DHT22;10518;50.742;4.226;2023-07-02T05:28:36;18.70;99.90
20714;DHT22;10518;50.742;4.226;2023-07-02T05:31:02;18.60;99.90
20714;DHT22;10518;50.742;4.226;2023-07-02T05:33:27;18.60;99.90
20714;DHT22;10518;50.742;4.226;2023-07-02T05:35:53;18.90;99.90
20714;DHT22;10518;50.742;4.226;2023-07-02T05:38:19;19.30;99.90
20714;DHT22;10518;50.742;4.226;2023-07-02T05:40:45;19.80;99.90
20714;DHT22;10518;50.742;4.226;2023-07-02T05:43:11;20.10;99.90
20714;DHT22;10518;50.742;4.226;2023-07-02T05:45:37;20.10;99.90
20714;DHT22;10518;50.742;4.226;2023-07-02T05:48:03;20.00;99.90
20714;DHT22;10518;50.742;4.226;2023-07-02T05:50:28;19.80;99.90
20714;DHT22;10518;50.742;4.226;2023-07-02T05:52:54;19.50;99.90
20714;DHT22;10518;50.742;4.226;2023-07-02T05:55:20;19.40;99.90
20714;DHT22;10518;50.742;4.226;2023-07-02T05:57:45;19.60;99.90
20714;DHT22;10518;50.742;4.226;2023-07-02T06:00:12;19.80;99.90
20714;DHT22;10518;50.742;4.226;2023-07-02T06:02:37;19.90;99.90
20714;DHT22;10518;50.742;4.226;2023-07-02T06:05:03;20.40;99.90
20714;DHT22;10518;50.742;4.226;2023-07-02T06:07:29;20.50;99.90
20714;DHT22;10518;50.742;4.226;2023-07-02T06:09:54;20.40;99.90
20714;DHT22;10518;50.742;4.226;2023-07-02T06:12:21;20.20;99.90
20714;DHT22;10518;50.742;4.226;2023-07-02T06:14:47;20.30;99.90
20714;DHT22;10518;50.742;4.226;2023-07-02T06:17:13;20.30;99.90
20714;DHT22;10518;50.742;4.226;2023-07-02T06:19:38;20.10;99.90
20714;DHT22;10518;50.742;4.226;2023-07-02T06:22:04;20.10;99.90
20714;DHT22;10518;50.742;4.226;2023-07-02T06:24:30;20.00;99.90
20714;DHT22;10518;50.742;4.226;2023-07-02T06:26:56;20.30;99.90
20714;DHT22;10518;50.742;4.226;2023-07-02T06:29:23;20.80;99.90
20714;DHT22;10518;50.742;4.226;2023-07-02T06:31:49;21.10;99.90
20714;DHT22;10518;50.742;4.226;2023-07-02T06:34:15;21.30;99.90
20714;DHT22;10518;50.742;4.226;2023-07-02T06:36:41;21.40;99.90
20714;DHT22;10518;50.742;4.226;2023-07-02T06:39:06;21.60;99.90
20714;DHT22;10518;50.742;4.226;2023-07-02T06:41:34;21.70;99.90
20714;DHT22;10518;50.742;4.226;2023-07-02T06:44:00;21.90;99.90
20714;DHT22;10518;50.742;4.226;2023-07-02T06:46:26;21.90;99.90
20714;DHT22;10518;50.742;4.226;2023-07-02T06:48:51;21.70;99.90
20714;DHT22;10518;50.742;4.226;2023-07-02T06:51:17;21.60;99.90
20714;DHT22;10518;50.742;4.226;2023-07-02T06:53:44;21.70;99.90
20714;DHT22;10518;50.742;4.226;2023-07-02T06:56:10;22.00;99.90
20714;DHT22;10518;50.742;4.226;2023-07-02T06:58:36;22.20;99.90
20714;DHT22;10518;50.742;4.226;2023-07-02T07:01:02;22.50;99.90
20714;DHT22;10518;50.742;4.226;2023-07-02T07:03:28;22.70;99.90
20714;DHT22;10518;50.742;4.226;2023-07-02T07:05:54;22.90;99.90
20714;DHT22;10518;50.742;4.226;2023-07-02T07:08:19;23.30;99.90
20714;DHT22;10518;50.742;4.226;2023-07-02T07:10:45;23.50;99.90
20714;DHT22;10518;50.742;4.226;2023-07-02T07:13:11;23.90;99.90
20714;DHT22;10518;50.742;4.226;2023-07-02T07:15:37;24.40;99.90
20714;DHT22;10518;50.742;4.226;2023-07-02T07:18:03;24.30;99.90
20714;DHT22;10518;50.742;4.226;2023-07-02T07:20:29;24.00;99.90
20714;DHT22;10518;50.742;4.226;2023-07-02T07:22:55;23.60;99.90
20714;DHT22;10518;50.742;4.226;2023-07-02T07:25:20;23.30;99.90
20714;DHT22;10518;50.742;4.226;2023-07-02T07:27:46;23.10;99.90
20714;DHT22;10518;50.742;4.226;2023-07-02T07:30:12;23.00;99.90
20714;DHT22;10518;50.742;4.226;2023-07-02T07:32:38;23.00;99.90
20714;DHT22;10518;50.742;4.226;2023-07-02T07:35:04;22.90;99.90
20714;DHT22;10518;50.742;4.226;2023-07-02T07:37:29;22.90;99.90
20714;DHT22;10518;50.742;4.226;2023-07-02T07:39:55;22.80;99.90
20714;DHT22;10518;50.742;4.226;2023-07-02T07:42:20;22.70;99.90
20714;DHT22;10518;50.742;4.226;2023-07-02T07:44:46;22.60;99.90
20714;DHT22;10518;50.742;4.226;2023-07-02T07:47:12;22.70;99.90
20714;DHT22;10518;50.742;4.226;2023-07-02T07:49:37;22.80;99.90
20714;DHT22;10518;50.742;4.226;2023-07-02T07:52:03;22.80;99.90
20714;DHT22;10518;50.742;4.226;2023-07-02T07:54:32;22.80;99.90
20714;DHT22;10518;50.742;4.226;2023-07-02T07:56:58;22.80;99.90
20714;DHT22;10518;50.742;4.226;2023-07-02T07:59:23;22.80;99.90
20714;DHT22;10518;50.742;4.226;2023-07-02T08:01:49;22.80;99.90
20714;DHT22;10518;50.742;4.226;2023-07-02T08:04:14;22.80;99.90
20714;DHT22;10518;50.742;4.226;2023-07-02T08:06:40;22.80;99.90
20714;DHT22;10518;50.742;4.226;2023-07-02T08:09:05;22.80;99.90
20714;DHT22;10518;50.742;4.226;2023-07-02T08:11:31;22.80;99.90
20714;DHT22;10518;50.742;4.226;2023-07-02T08:13:57;22.70;99.90
20714;DHT22;10518;50.742;4.226;2023-07-02T08:16:23;22.60;99.90
20714;DHT22;10518;50.742;4.226;2023-07-02T08:18:48;22.60;99.90
20714;DHT22;10518;50.742;4.226;2023-07-02T08:21:14;22.70;99.90
20714;DHT22;10518;50.742;4.226;2023-07-02T08:23:41;23.00;99.90
20714;DHT22;10518;50.742;4.226;2023-07-02T08:26:07;23.30;99.90
20714;DHT22;10518;50.742;4.226;2023-07-02T08:28:32;23.50;99.90
20714;DHT22;10518;50.742;4.226;2023-07-02T08:30:58;23.40;99.90
20714;DHT22;10518;50.742;4.226;2023-07-02T08:33:24;23.10;99.90
20714;DHT22;10518;50.742;4.226;2023-07-02T08:35:50;22.90;99.90
20714;DHT22;10518;50.742;4.226;2023-07-02T08:38:15;22.70;99.90
20714;DHT22;10518;50.742;4.226;2023-07-02T08:40:41;22.70;99.90
20714;DHT22;10518;50.742;4.226;2023-07-02T08:43:07;22.50;99.90
20714;DHT22;10518;50.742;4.226;2023-07-02T08:45:33;22.50;99.90
20714;DHT22;10518;50.742;4.226;2023-07-02T08:47:58;22.30;99.90
20714;DHT22;10518;50.742;4.226;2023-07-02T08:50:24;22.20;99.90
20714;DHT22;10518;50.742;4.226;2023-07-02T08:52:50;22.30;99.90
20714;DHT22;10518;50.742;4.226;2023-07-02T08:55:16;22.50;99.90
20714;DHT22;10518;50.742;4.226;2023-07-02T08:57:49;22.70;99.90
20714;DHT22;10518;50.742;4.226;2023-07-02T09:00:15;22.90;99.90
20714;DHT22;10518;50.742;4.226;2023-07-02T09:02:41;23.10;99.90
20714;DHT22;10518;50.742;4.226;2023-07-02T09:05:06;23.10;99.90
20714;DHT22;10518;50.742;4.226;2023-07-02T09:07:42;23.10;99.90
20714;DHT22;10518;50.742;4.226;2023-07-02T09:10:08;22.80;99.90
20714;DHT22;10518;50.742;4.226;2023-07-02T09:12:34;22.60;99.90
20714;DHT22;10518;50.742;4.226;2023-07-02T09:15:04;22.40;99.90
20714;DHT22;10518;50.742;4.226;2023-07-02T09:17:33;22.30;99.90
20714;DHT22;10518;50.742;4.226;2023-07-02T09:20:00;22.20;99.90
20714;DHT22;10518;50.742;4.226;2023-07-02T09:22:26;22.10;99.90
20714;DHT22;10518;50.742;4.226;2023-07-02T09:24:56;22.00;99.90
20714;DHT22;10518;50.742;4.226;2023-07-02T09:27:41;21.90;99.90
20714;DHT22;10518;50.742;4.226;2023-07-02T09:30:15;22.00;99.90
20714;DHT22;10518;50.742;4.226;2023-07-02T09:32:42;22.10;99.90
20714;DHT22;10518;50.742;4.226;2023-07-02T09:35:08;22.10;99.90
20714;DHT22;10518;50.742;4.226;2023-07-02T09:37:34;22.30;99.90
20714;DHT22;10518;50.742;4.226;2023-07-02T09:40:00;22.40;99.90
20714;DHT22;10518;50.742;4.226;2023-07-02T09:42:28;22.50;99.90
20714;DHT22;10518;50.742;4.226;2023-07-02T09:44:55;22.70;99.90
20714;DHT22;10518;50.742;4.226;2023-07-02T09:47:23;22.80;99.90
20714;DHT22;10518;50.742;4.226;2023-07-02T09:49:54;22.70;99.90
20714;DHT22;10518;50.742;4.226;2023-07-02T09:52:21;22.50;99.90
20714;DHT22;10518;50.742;4.226;2023-07-02T09:54:46;22.30;99.90
20714;DHT22;10518;50.742;4.226;2023-07-02T09:57:12;22.40;99.90
20714;DHT22;10518;50.742;4.226;2023-07-02T09:59:39;22.50;99.90
20714;DHT22;10518;50.742;4.226;2023-07-02T10:02:05;22.50;99.90
20714;DHT22;10518;50.742;4.226;2023-07-02T10:04:47;22.50;99.90
20714;DHT22;10518;50.742;4.226;2023-07-02T10:07:13;22.60;99.90
20714;DHT22;10518;50.742;4.226;2023-07-02T10:09:50;22.90;99.90
20714;DHT22;10518;50.742;4.226;2023-07-02T10:12:24;23.30;99.90
20714;DHT22;10518;50.742;4.226;2023-07-02T10:14:51;23.40;99.90
20714;DHT22;10518;50.742;4.226;2023-07-02T10:20:10;23.50;99.90
20714;DHT22;10518;50.742;4.226;2023-07-02T10:22:47;23.40;99.90
20714;DHT22;10518;50.742;4.226;2023-07-02T10:25:27;23.40;99.90
20714;DHT22;10518;50.742;4.226;2023-07-02T10:27:53;23.80;99.90
20714;DHT22;10518;50.742;4.226;2023-07-02T10:30:18;24.30;99.90
20714;DHT22;10518;50.742;4.226;2023-07-02T10:32:44;24.40;99.90
20714;DHT22;10518;50.742;4.226;2023-07-02T10:35:16;24.30;99.90
20714;DHT22;10518;50.742;4.226;2023-07-02T10:37:42;24.10;99.90
20714;DHT22;10518;50.742;4.226;2023-07-02T10:40:09;24.00;99.90
20714;DHT22;10518;50.742;4.226;2023-07-02T10:42:49;23.90;99.90
20714;DHT22;10518;50.742;4.226;2023-07-02T10:45:14;24.10;99.90
20714;DHT22;10518;50.742;4.226;2023-07-02T10:47:41;24.20;99.90
20714;DHT22;10518;50.742;4.226;2023-07-02T10:50:17;24.20;99.90
20714;DHT22;10518;50.742;4.226;2023-07-02T10:52:43;24.30;99.90
20714;DHT22;10518;50.742;4.226;2023-07-02T10:55:09;24.10;99.90
20714;DHT22;10518;50.742;4.226;2023-07-02T10:57:35;24.00;99.90
20714;DHT22;10518;50.742;4.226;2023-07-02T11:00:07;23.90;99.90
20714;DHT22;10518;50.742;4.226;2023-07-02T11:02:37;23.60;99.90
20714;DHT22;10518;50.742;4.226;2023-07-02T11:05:06;23.40;99.90
20714;DHT22;10518;50.742;4.226;2023-07-02T11:07:33;23.40;99.90
20714;DHT22;10518;50.742;4.226;2023-07-02T11:09:59;23.20;99.90
20714;DHT22;10518;50.742;4.226;2023-07-02T11:12:31;23.10;99.90
20714;DHT22;10518;50.742;4.226;2023-07-02T11:15:09;22.90;99.90
20714;DHT22;10518;50.742;4.226;2023-07-02T11:17:35;22.90;99.90
20714;DHT22;10518;50.742;4.226;2023-07-02T11:20:00;23.00;99.90
20714;DHT22;10518;50.742;4.226;2023-07-02T11:22:33;23.20;99.90
20714;DHT22;10518;50.742;4.226;2023-07-02T11:25:18;23.10;99.90
20714;DHT22;10518;50.742;4.226;2023-07-02T11:27:45;23.10;99.90
20714;DHT22;10518;50.742;4.226;2023-07-02T11:30:12;23.00;99.90
20714;DHT22;10518;50.742;4.226;2023-07-02T11:33:07;23.10;99.90
20714;DHT22;10518;50.742;4.226;2023-07-02T11:35:35;23.10;99.90
20714;DHT22;10518;50.742;4.226;2023-07-02T11:38:01;23.10;99.90
20714;DHT22;10518;50.742;4.226;2023-07-02T11:40:27;23.20;99.90
20714;DHT22;10518;50.742;4.226;2023-07-02T11:42:52;23.30;99.90
20714;DHT22;10518;50.742;4.226;2023-07-02T11:45:18;23.40;99.90
20714;DHT22;10518;50.742;4.226;2023-07-02T11:47:44;23.50;99.90
20714;DHT22;10518;50.742;4.226;2023-07-02T11:50:10;23.80;99.90
20714;DHT22;10518;50.742;4.226;2023-07-02T11:52:36;24.00;99.90
20714;DHT22;10518;50.742;4.226;2023-07-02T11:55:01;24.10;99.90
20714;DHT22;10518;50.742;4.226;2023-07-02T11:57:27;24.00;99.90
20714;DHT22;10518;50.742;4.226;2023-07-02T11:59:53;23.90;99.90
20714;DHT22;10518;50.742;4.226;2023-07-02T12:02:18;23.80;99.90
20714;DHT22;10518;50.742;4.226;2023-07-02T12:04:44;23.80;99.90
20714;DHT22;10518;50.742;4.226;2023-07-02T12:07:10;23.90;99.90
20714;DHT22;10518;50.742;4.226;2023-07-02T12:09:36;23.80;99.90
20714;DHT22;10518;50.742;4.226;2023-07-02T12:12:02;23.80;99.90
20714;DHT22;10518;50.742;4.226;2023-07-02T12:14:27;24.00;99.90
20714;DHT22;10518;50.742;4.226;2023-07-02T12:16:53;24.10;99.90
20714;DHT22;10518;50.742;4.226;2023-07-02T12:19:18;24.10;99.90
20714;DHT22;10518;50.742;4.226;2023-07-02T12:21:44;23.90;99.90
20714;DHT22;10518;50.742;4.226;2023-07-02T12:24:10;24.00;99.90
20714;DHT22;10518;50.742;4.226;2023-07-02T12:26:36;24.10;99.90
20714;DHT22;10518;50.742;4.226;2023-07-02T12:29:02;23.90;99.90
20714;DHT22;10518;50.742;4.226;2023-07-02T12:31:27;24.00;99.90
20714;DHT22;10518;50.742;4.226;2023-07-02T12:33:53;24.00;99.90
20714;DHT22;10518;50.742;4.226;2023-07-02T12:36:18;24.30;99.90
20714;DHT22;10518;50.742;4.226;2023-07-02T12:38:44;24.40;99.90
20714;DHT22;10518;50.742;4.226;2023-07-02T12:41:10;24.30;99.90
20714;DHT22;10518;50.742;4.226;2023-07-02T12:43:35;24.20;99.90
20714;DHT22;10518;50.742;4.226;2023-07-02T12:46:01;24.10;99.90
20714;DHT22;10518;50.742;4.226;2023-07-02T12:48:26;24.20;99.90
20714;DHT22;10518;50.742;4.226;2023-07-02T12:50:59;24.30;99.90
20714;DHT22;10518;50.742;4.226;2023-07-02T12:53:26;24.30;99.90
20714;DHT22;10518;50.742;4.226;2023-07-02T12:55:52;24.30;99.90
20714;DHT22;10518;50.742;4.226;2023-07-02T12:58:18;24.50;99.90
20714;DHT22;10518;50.742;4.226;2023-07-02T13:00:44;24.60;99.90
20714;DHT22;10518;50.742;4.226;2023-07-02T13:03:11;24.70;99.90
20714;DHT22;10518;50.742;4.226;2023-07-02T13:05:38;24.60;99.90
20714;DHT22;10518;50.742;4.226;2023-07-02T13:08:04;24.60;99.90
20714;DHT22;10518;50.742;4.226;2023-07-02T13:10:30;24.60;99.90
20714;DHT22;10518;50.742;4.226;2023-07-02T13:12:56;24.50;99.90
20714;DHT22;10518;50.742;4.226;2023-07-02T13:15:22;24.50;99.90
20714;DHT22;10518;50.742;4.226;2023-07-02T13:17:47;24.70;99.90
20714;DHT22;10518;50.742;4.226;2023-07-02T13:20:13;24.70;99.90
20714;DHT22;10518;50.742;4.226;2023-07-02T13:22:39;24.80;99.90
20714;DHT22;10518;50.742;4.226;2023-07-02T13:25:05;24.80;99.90
20714;DHT22;10518;50.742;4.226;2023-07-02T13:27:31;24.80;99.90
20714;DHT22;10518;50.742;4.226;2023-07-02T13:29:57;24.80;99.90
20714;DHT22;10518;50.742;4.226;2023-07-02T13:32:22;24.70;99.90
20714;DHT22;10518;50.742;4.226;2023-07-02T13:34:48;24.60;99.90
20714;DHT22;10518;50.742;4.226;2023-07-02T13:37:13;24.50;99.90
20714;DHT22;10518;50.742;4.226;2023-07-02T13:39:43;24.50;99.90
20714;DHT22;10518;50.742;4.226;2023-07-02T13:42:09;24.50;99.90
20714;DHT22;10518;50.742;4.226;2023-07-02T13:44:34;24.50;99.90
20714;DHT22;10518;50.742;4.226;2023-07-02T13:47:00;24.70;99.90
20714;DHT22;10518;50.742;4.226;2023-07-02T13:49:25;24.90;99.90
20714;DHT22;10518;50.742;4.226;2023-07-02T13:51:51;24.80;99.90
20714;DHT22;10518;50.742;4.226;2023-07-02T13:54:17;24.80;99.90
20714;DHT22;10518;50.742;4.226;2023-07-02T13:56:44;24.60;99.90
20714;DHT22;10518;50.742;4.226;2023-07-02T13:59:10;24.60;99.90
20714;DHT22;10518;50.742;4.226;2023-07-02T14:01:35;24.60;99.90
20714;DHT22;10518;50.742;4.226;2023-07-02T14:04:02;24.60;99.90
20714;DHT22;10518;50.742;4.226;2023-07-02T14:06:29;24.80;99.90
20714;DHT22;10518;50.742;4.226;2023-07-02T14:08:54;25.00;99.90
20714;DHT22;10518;50.742;4.226;2023-07-02T14:11:22;25.00;99.90
20714;DHT22;10518;50.742;4.226;2023-07-02T14:13:48;25.00;99.90
20714;DHT22;10518;50.742;4.226;2023-07-02T14:16:13;25.20;99.90
20714;DHT22;10518;50.742;4.226;2023-07-02T14:18:39;25.00;99.90
20714;DHT22;10518;50.742;4.226;2023-07-02T14:21:05;25.00;99.90
20714;DHT22;10518;50.742;4.226;2023-07-02T14:23:31;25.00;99.90
20714;DHT22;10518;50.742;4.226;2023-07-02T14:25:57;25.10;99.90
20714;DHT22;10518;50.742;4.226;2023-07-02T14:28:23;25.30;99.90
20714;DHT22;10518;50.742;4.226;2023-07-02T14:30:58;25.40;99.90
20714;DHT22;10518;50.742;4.226;2023-07-02T14:33:25;25.70;99.90
20714;DHT22;10518;50.742;4.226;2023-07-02T14:35:51;25.70;99.90
20714;DHT22;10518;50.742;4.226;2023-07-02T14:38:16;25.50;99.90
20714;DHT22;10518;50.742;4.226;2023-07-02T14:40:42;25.50;99.90
20714;DHT22;10518;50.742;4.226;2023-07-02T14:43:07;25.50;99.90
20714;DHT22;10518;50.742;4.226;2023-07-02T14:45:33;25.40;99.90
20714;DHT22;10518;50.742;4.226;2023-07-02T14:47:59;25.40;99.90
20714;DHT22;10518;50.742;4.226;2023-07-02T14:50:26;25.40;99.90
20714;DHT22;10518;50.742;4.226;2023-07-02T14:52:52;25.20;99.90
20714;DHT22;10518;50.742;4.226;2023-07-02T14:55:17;25.10;99.90
20714;DHT22;10518;50.742;4.226;2023-07-02T14:57:43;25.00;99.90
20714;DHT22;10518;50.742;4.226;2023-07-02T15:00:09;24.80;99.90
20714;DHT22;10518;50.742;4.226;2023-07-02T15:02:35;24.60;99.90
20714;DHT22;10518;50.742;4.226;2023-07-02T15:05:00;24.40;99.90
20714;DHT22;10518;50.742;4.226;2023-07-02T15:07:28;24.30;99.90
20714;DHT22;10518;50.742;4.226;2023-07-02T15:09:53;24.30;99.90
20714;DHT22;10518;50.742;4.226;2023-07-02T15:12:19;24.30;99.90
20714;DHT22;10518;50.742;4.226;2023-07-02T15:14:44;24.20;99.90
20714;DHT22;10518;50.742;4.226;2023-07-02T15:17:10;24.10;99.90
20714;DHT22;10518;50.742;4.226;2023-07-02T15:19:35;24.10;99.90
20714;DHT22;10518;50.742;4.226;2023-07-02T15:22:01;24.20;99.90
20714;DHT22;10518;50.742;4.226;2023-07-02T15:24:27;24.30;99.90
20714;DHT22;10518;50.742;4.226;2023-07-02T15:26:52;24.50;99.90
20714;DHT22;10518;50.742;4.226;2023-07-02T15:29:18;24.60;99.90